createdAt,value
2019-01-12T00:01:29.548Z,2.20
2019-01-12T00:04:09.780Z,2.20
2019-01-12T00:06:39.756Z,2.20
2019-01-12T00:09:12.368Z,2.20
2019-01-12T00:11:45.601Z,2.30
2019-01-12T00:14:15.671Z,2.30
2019-01-12T00:16:47.043Z,2.30
2019-01-12T00:19:17.657Z,2.30
2019-01-12T00:21:50.633Z,2.30
2019-01-12T00:24:23.978Z,2.30
2019-01-12T00:26:53.693Z,2.40
2019-01-12T00:29:25.552Z,2.30
2019-01-12T00:31:55.002Z,2.30
2019-01-12T00:34:24.488Z,2.30
2019-01-12T00:36:55.147Z,2.30
2019-01-12T00:39:26.923Z,2.30
2019-01-12T00:41:57.649Z,2.30
2019-01-12T00:44:28.643Z,2.30
2019-01-12T00:47:00.226Z,2.30
2019-01-12T00:49:31.212Z,2.30
2019-01-12T00:52:01.651Z,2.30
2019-01-12T00:54:31.072Z,2.30
2019-01-12T00:57:01.108Z,2.30
2019-01-12T00:59:32.909Z,2.30
2019-01-12T01:02:03.693Z,2.30
2019-01-12T01:04:34.209Z,2.30
2019-01-12T01:07:04.169Z,2.40
2019-01-12T01:09:34.571Z,2.30
2019-01-12T01:12:06.251Z,2.30
2019-01-12T01:14:37.145Z,2.40
2019-01-12T01:17:07.438Z,2.40
2019-01-12T01:19:37.233Z,2.40
2019-01-12T01:22:07.954Z,2.40
2019-01-12T01:24:45.576Z,2.30
2019-01-12T01:27:10.814Z,2.30
2019-01-12T01:29:42.361Z,2.40
2019-01-12T01:32:13.544Z,2.40
2019-01-12T01:34:44.868Z,2.30
2019-01-12T01:37:16.499Z,2.30
2019-01-12T01:39:47.996Z,2.30
2019-01-12T01:42:18.489Z,2.30
2019-01-12T01:44:49.196Z,2.30
2019-01-12T01:47:20.476Z,2.30
2019-01-12T01:49:52.225Z,2.40
2019-01-12T01:52:22.948Z,2.30
2019-01-12T01:54:53.244Z,2.30
2019-01-12T01:57:24.126Z,2.40
2019-01-12T01:59:54.840Z,2.40
2019-01-12T02:02:27.007Z,2.40
2019-01-12T02:04:57.765Z,2.40
2019-01-12T02:07:29.385Z,2.40
2019-01-12T02:09:59.165Z,2.40
2019-01-12T02:12:30.394Z,2.40
2019-01-12T02:15:01.583Z,2.50
2019-01-12T02:17:32.898Z,2.50
2019-01-12T02:20:02.354Z,2.40
2019-01-12T02:22:32.316Z,2.40
2019-01-12T02:25:05.082Z,2.40
2019-01-12T02:27:36.026Z,2.40
2019-01-12T02:30:08.715Z,2.40
2019-01-12T02:32:39.489Z,2.40
2019-01-12T02:35:09.171Z,2.40
2019-01-12T02:37:39.872Z,2.40
2019-01-12T02:40:10.849Z,2.40
2019-01-12T02:42:41.161Z,2.40
2019-01-12T02:45:12.206Z,2.40
2019-01-12T02:47:46.568Z,2.40
2019-01-12T02:50:16.152Z,2.40
2019-01-12T02:52:48.333Z,2.40
2019-01-12T02:55:17.706Z,2.40
2019-01-12T02:57:47.188Z,2.40
2019-01-12T03:00:18.947Z,2.40
2019-01-12T03:02:49.424Z,2.40
2019-01-12T03:05:19.602Z,2.40
2019-01-12T03:07:49.846Z,2.50
2019-01-12T03:10:20.784Z,2.50
2019-01-12T03:12:51.610Z,2.50
2019-01-12T03:15:21.601Z,2.50
2019-01-12T03:17:50.979Z,2.40
2019-01-12T03:20:20.824Z,2.50
2019-01-12T03:22:52.280Z,2.50
2019-01-12T03:25:22.617Z,2.50
2019-01-12T03:27:54.824Z,2.50
2019-01-12T03:30:24.399Z,2.50
2019-01-12T03:32:54.054Z,2.50
2019-01-12T03:35:24.504Z,2.60
2019-01-12T03:37:54.750Z,2.60
2019-01-12T03:40:25.898Z,2.60
2019-01-12T03:42:59.771Z,2.60
2019-01-12T03:45:29.083Z,2.60
2019-01-12T03:47:59.507Z,2.70
2019-01-12T03:50:31.832Z,2.70
2019-01-12T03:53:01.205Z,2.70
2019-01-12T03:55:30.628Z,2.70
2019-01-12T03:57:59.995Z,2.70
2019-01-12T04:00:31.608Z,2.70
2019-01-12T04:03:01.142Z,2.70
2019-01-12T04:05:30.527Z,2.70
2019-01-12T04:08:00.601Z,2.70
2019-01-12T04:10:33.182Z,2.70
2019-01-12T04:13:08.564Z,2.70
2019-01-12T04:15:46.509Z,2.70
2019-01-12T04:18:18.411Z,2.70
2019-01-12T04:20:51.087Z,2.70
2019-01-12T04:23:20.546Z,2.70
2019-01-12T04:25:50.455Z,2.70
2019-01-12T04:28:21.487Z,2.80
2019-01-12T04:30:53.925Z,2.80
2019-01-12T04:33:25.203Z,2.70
2019-01-12T04:35:57.011Z,2.70
2019-01-12T04:38:27.683Z,2.70
2019-01-12T04:40:58.548Z,2.70
2019-01-12T04:43:27.913Z,2.70
2019-01-12T04:45:58.121Z,2.70
2019-01-12T04:48:30.028Z,2.70
2019-01-12T04:51:06.127Z,2.70
2019-01-12T04:53:39.609Z,2.70
2019-01-12T04:56:12.209Z,2.70
2019-01-12T04:58:43.574Z,2.70
2019-01-12T05:01:14.880Z,2.70
2019-01-12T05:03:47.366Z,2.70
2019-01-12T05:06:21.092Z,2.70
2019-01-12T05:08:50.570Z,2.60
2019-01-12T05:11:21.437Z,2.70
2019-01-12T05:13:52.492Z,2.70
2019-01-12T05:16:23.305Z,2.60
2019-01-12T05:18:53.840Z,2.70
2019-01-12T05:21:24.154Z,2.70
2019-01-12T05:23:53.541Z,2.60
2019-01-12T05:26:23.339Z,2.70
2019-01-12T05:28:54.626Z,2.70
2019-01-12T05:31:25.588Z,2.60
2019-01-12T05:34:00.111Z,2.70
2019-01-12T05:36:31.900Z,2.70
2019-01-12T05:39:04.155Z,2.70
2019-01-12T05:41:36.088Z,2.70
2019-01-12T05:44:09.348Z,2.70
2019-01-12T05:46:41.139Z,2.70
2019-01-12T05:49:14.530Z,2.70
2019-01-12T05:51:45.017Z,2.70
2019-01-12T05:54:15.202Z,2.60
2019-01-12T05:56:45.662Z,2.70
2019-01-12T05:59:15.928Z,2.60
2019-01-12T06:01:45.881Z,2.70
2019-01-12T06:04:18.056Z,2.70
2019-01-12T06:06:49.027Z,2.60
2019-01-12T06:09:22.970Z,2.60
2019-01-12T06:11:53.406Z,2.70
2019-01-12T06:14:23.829Z,2.70
2019-01-12T06:16:53.195Z,2.70
2019-01-12T06:19:22.577Z,2.70
2019-01-12T06:21:52.195Z,2.70
2019-01-12T06:24:22.977Z,2.70
2019-01-12T06:26:55.558Z,2.70
2019-01-12T06:29:32.944Z,2.70
2019-01-12T06:32:02.931Z,2.70
2019-01-12T06:34:33.406Z,2.70
2019-01-12T06:37:04.600Z,2.80
2019-01-12T06:39:35.681Z,2.80
2019-01-12T06:42:08.144Z,2.80
2019-01-12T06:44:40.702Z,2.90
2019-01-12T06:47:13.853Z,2.80
2019-01-12T06:49:44.778Z,2.80
2019-01-12T06:52:18.333Z,2.80
2019-01-12T06:54:47.823Z,2.80
2019-01-12T06:57:19.978Z,2.80
2019-01-12T06:59:49.291Z,2.80
2019-01-12T07:02:20.404Z,2.80
2019-01-12T07:04:52.900Z,2.70
2019-01-12T07:07:26.418Z,2.80
2019-01-12T07:09:55.850Z,2.80
2019-01-12T07:12:26.497Z,2.80
2019-01-12T07:14:57.847Z,2.80
2019-01-12T07:17:29.580Z,2.80
2019-01-12T07:20:00.814Z,2.80
2019-01-12T07:22:34.865Z,2.80
2019-01-12T07:25:07.096Z,2.80
2019-01-12T07:27:38.243Z,2.80
2019-01-12T07:30:21.019Z,2.80
2019-01-12T07:32:51.883Z,2.80
2019-01-12T07:35:22.992Z,2.80
2019-01-12T07:37:54.154Z,2.80
2019-01-12T07:40:25.847Z,2.80
2019-01-12T07:42:58.749Z,2.80
2019-01-12T07:45:29.389Z,2.80
2019-01-12T07:48:00.075Z,2.80
2019-01-12T07:50:34.806Z,2.80
2019-01-12T07:53:05.652Z,2.90
2019-01-12T07:55:35.560Z,2.90
2019-01-12T07:58:06.988Z,2.90
2019-01-12T08:00:36.808Z,2.90
2019-01-12T08:03:09.290Z,2.90
2019-01-12T08:05:41.979Z,2.90
2019-01-12T08:08:16.616Z,2.90
2019-01-12T08:10:48.072Z,2.90
2019-01-12T08:13:21.026Z,3.00
2019-01-12T08:15:52.557Z,3.00
2019-01-12T08:18:24.733Z,3.00
2019-01-12T08:20:57.793Z,3.00
2019-01-12T08:23:33.379Z,3.00
2019-01-12T08:26:04.878Z,3.00
2019-01-12T08:28:35.316Z,3.00
2019-01-12T08:31:09.184Z,3.00
2019-01-12T08:33:41.728Z,3.00
2019-01-12T08:36:14.160Z,3.00
2019-01-12T08:38:52.659Z,3.00
2019-01-12T08:41:27.064Z,3.10
2019-01-12T08:43:58.791Z,3.00
2019-01-12T08:46:34.410Z,3.10
2019-01-12T08:49:09.159Z,3.00
2019-01-12T08:51:41.902Z,3.10
2019-01-12T08:54:14.710Z,3.10
2019-01-12T08:56:51.646Z,3.00
2019-01-12T08:59:25.833Z,3.10
2019-01-12T09:02:02.431Z,3.10
2019-01-12T09:04:43.427Z,3.10
2019-01-12T09:07:12.147Z,3.20
2019-01-12T09:09:50.714Z,3.10
2019-01-12T09:12:24.462Z,3.20
2019-01-12T09:14:55.315Z,3.20
2019-01-12T09:17:31.304Z,3.20
2019-01-12T09:20:19.080Z,3.20
2019-01-12T09:22:52.684Z,3.20
2019-01-12T09:25:29.627Z,3.20
2019-01-12T09:28:04.264Z,3.20
2019-01-12T09:30:40.030Z,3.30
2019-01-12T09:33:20.142Z,3.30
2019-01-12T09:35:59.801Z,3.30
2019-01-12T09:38:32.728Z,3.20
2019-01-12T09:41:10.557Z,3.20
2019-01-12T09:43:44.995Z,3.20
2019-01-12T09:46:18.722Z,3.20
2019-01-12T09:48:51.780Z,3.10
2019-01-12T09:51:26.185Z,3.10
2019-01-12T09:53:58.199Z,3.10
2019-01-12T09:56:29.501Z,3.20
2019-01-12T09:59:01.710Z,3.20
2019-01-12T10:01:34.707Z,3.20
2019-01-12T10:04:06.006Z,3.20
2019-01-12T10:06:46.160Z,3.10
2019-01-12T10:09:19.631Z,3.10
2019-01-12T10:11:50.751Z,3.10
2019-01-12T10:14:20.793Z,3.10
2019-01-12T10:16:54.720Z,3.10
2019-01-12T10:19:28.599Z,3.10
2019-01-12T10:22:00.256Z,3.10
2019-01-12T10:24:31.174Z,3.10
2019-01-12T10:27:05.177Z,3.10
2019-01-12T10:29:38.728Z,3.10
2019-01-12T10:32:10.969Z,3.20
2019-01-12T10:34:42.927Z,3.20
2019-01-12T10:37:12.434Z,3.20
2019-01-12T10:39:46.537Z,3.30
2019-01-12T10:42:17.048Z,3.40
2019-01-12T10:44:49.682Z,3.30
2019-01-12T10:47:21.682Z,3.40
2019-01-12T10:49:53.427Z,3.40
2019-01-12T10:52:24.499Z,3.40
2019-01-12T10:54:57.399Z,3.40
2019-01-12T10:57:30.915Z,3.50
2019-01-12T11:00:07.640Z,3.40
2019-01-12T11:02:43.289Z,3.50
2019-01-12T11:05:16.770Z,3.50
2019-01-12T11:07:52.733Z,3.50
2019-01-12T11:10:23.096Z,3.50
2019-01-12T11:12:54.815Z,3.40
2019-01-12T11:15:25.574Z,3.40
2019-01-12T11:17:58.789Z,3.40
2019-01-12T11:20:31.684Z,3.50
2019-01-12T11:23:04.269Z,3.50
2019-01-12T11:25:43.034Z,3.40
2019-01-12T11:28:19.121Z,3.50
2019-01-12T11:30:56.041Z,3.60
2019-01-12T11:33:32.188Z,3.60
2019-01-12T11:36:04.025Z,3.60
2019-01-12T11:38:37.024Z,3.60
2019-01-12T11:41:14.840Z,3.60
2019-01-12T11:43:45.862Z,3.70
2019-01-12T11:46:17.227Z,3.80
2019-01-12T11:48:49.092Z,3.80
2019-01-12T11:51:26.205Z,3.80
2019-01-12T11:54:02.808Z,3.80
2019-01-12T11:56:37.756Z,3.80
2019-01-12T11:59:08.637Z,3.80
2019-01-12T12:01:41.107Z,3.80
2019-01-12T12:04:16.299Z,3.80
2019-01-12T12:06:48.912Z,3.70
2019-01-12T12:09:24.687Z,3.70
2019-01-12T12:12:05.274Z,3.70
2019-01-12T12:14:49.711Z,3.80
2019-01-12T12:17:22.704Z,3.70
2019-01-12T12:19:54.243Z,3.70
2019-01-12T12:22:31.645Z,3.70
2019-01-12T12:25:03.826Z,3.70
2019-01-12T12:27:43.494Z,3.70
2019-01-12T12:30:23.669Z,3.80
2019-01-12T12:32:58.088Z,3.70
2019-01-12T12:35:37.895Z,3.70
2019-01-12T12:38:11.138Z,3.70
2019-01-12T12:40:45.336Z,3.70
2019-01-12T12:43:17.715Z,3.80
2019-01-12T12:45:55.704Z,3.80
2019-01-12T12:48:30.058Z,3.90
2019-01-12T12:51:00.952Z,4.00
2019-01-12T12:56:41.829Z,4.00
2019-01-12T12:59:12.930Z,4.00
2019-01-12T13:01:48.503Z,4.00
2019-01-12T13:04:27.734Z,4.00
2019-01-12T13:07:05.408Z,3.90
2019-01-12T13:09:45.619Z,3.80
2019-01-12T13:12:18.351Z,3.80
2019-01-12T13:14:56.453Z,3.70
2019-01-12T13:17:36.049Z,3.70
2019-01-12T13:20:13.646Z,3.80
2019-01-12T13:22:57.697Z,3.80
2019-01-12T13:25:37.693Z,3.80
2019-01-12T13:28:17.627Z,3.80
2019-01-12T13:30:51.993Z,3.80
2019-01-12T13:33:26.918Z,3.80
2019-01-12T13:35:59.420Z,3.70
2019-01-12T13:38:38.700Z,3.70
2019-01-12T13:41:09.597Z,3.70
2019-01-12T13:43:44.121Z,3.80
2019-01-12T13:46:18.151Z,3.70
2019-01-12T13:48:56.576Z,3.70
2019-01-12T13:51:30.199Z,3.70
2019-01-12T13:54:02.730Z,3.70
2019-01-12T13:56:32.713Z,3.80
2019-01-12T13:59:04.834Z,3.80
2019-01-12T14:01:35.086Z,3.80
2019-01-12T14:04:07.467Z,3.90
2019-01-12T14:06:40.042Z,3.90
2019-01-12T14:09:20.578Z,3.90
2019-01-12T14:11:52.187Z,3.90
2019-01-12T14:14:25.960Z,3.90
2019-01-12T14:16:57.814Z,3.90
2019-01-12T14:19:31.545Z,3.90
2019-01-12T14:22:04.886Z,3.90
2019-01-12T14:24:35.442Z,3.90
2019-01-12T14:27:12.356Z,3.90
2019-01-12T14:29:41.914Z,3.90
2019-01-12T14:32:14.891Z,3.90
2019-01-12T14:34:48.286Z,3.90
2019-01-12T14:37:18.353Z,3.90
2019-01-12T14:40:03.851Z,3.80
2019-01-12T14:42:34.702Z,3.90
2019-01-12T14:45:11.264Z,3.80
2019-01-12T14:47:42.102Z,3.90
2019-01-12T14:50:16.664Z,3.90
2019-01-12T14:52:51.160Z,3.80
2019-01-12T14:55:23.192Z,3.90
2019-01-12T14:58:02.525Z,3.80
2019-01-12T15:00:32.271Z,3.90
2019-01-12T15:03:09.283Z,3.90
2019-01-12T15:05:48.835Z,3.90
2019-01-12T15:08:22.310Z,3.90
2019-01-12T15:10:59.842Z,3.90
2019-01-12T15:13:38.467Z,3.90
2019-01-12T15:16:13.698Z,4.00
2019-01-12T15:18:59.759Z,4.00
2019-01-12T15:22:01.491Z,4.00
2019-01-12T15:24:44.517Z,4.10
2019-01-12T15:27:25.790Z,4.10
2019-01-12T15:30:01.474Z,4.10
2019-01-12T15:32:39.615Z,4.10
2019-01-12T15:35:21.306Z,4.10
2019-01-12T15:38:01.618Z,4.10
2019-01-12T15:40:39.853Z,4.20
2019-01-12T15:43:09.960Z,4.10
2019-01-12T15:45:44.189Z,4.10
2019-01-12T15:48:24.803Z,4.10
2019-01-12T15:51:01.589Z,4.10
2019-01-12T15:53:40.334Z,4.00
2019-01-12T15:56:12.564Z,4.10
2019-01-12T15:58:42.684Z,4.10
2019-01-12T16:01:13.633Z,4.20
2019-01-12T16:03:44.391Z,4.20
2019-01-12T16:06:18.981Z,4.20
2019-01-12T16:08:59.049Z,4.20
2019-01-12T16:11:35.471Z,4.20
2019-01-12T16:14:12.151Z,4.10
2019-01-12T16:16:44.261Z,4.20
2019-01-12T16:19:32.436Z,4.10
2019-01-12T16:22:02.337Z,4.20
2019-01-12T16:24:35.241Z,4.20
2019-01-12T16:27:05.456Z,4.10
2019-01-12T16:29:41.924Z,4.20
2019-01-12T16:32:17.794Z,4.10
2019-01-12T16:34:49.104Z,4.00
2019-01-12T16:37:22.010Z,4.10
2019-01-12T16:39:53.565Z,4.10
2019-01-12T16:42:26.151Z,4.10
2019-01-12T16:44:56.233Z,4.10
2019-01-12T16:47:32.273Z,4.10
2019-01-12T16:50:07.841Z,4.20
2019-01-12T16:52:38.056Z,4.10
2019-01-12T16:55:09.431Z,4.10
2019-01-12T16:57:40.367Z,4.10
2019-01-12T17:00:16.119Z,4.00
2019-01-12T17:02:46.164Z,4.00
2019-01-12T17:05:16.380Z,4.00
2019-01-12T17:07:46.756Z,3.90
2019-01-12T17:10:19.449Z,3.90
2019-01-12T17:12:52.571Z,3.70
2019-01-12T17:15:26.673Z,3.70
2019-01-12T17:18:13.160Z,3.60
2019-01-12T17:20:49.724Z,3.50
2019-01-12T17:23:25.811Z,3.50
2019-01-12T17:26:02.198Z,3.40
2019-01-12T17:28:37.699Z,3.40
2019-01-12T17:31:08.414Z,3.40
2019-01-12T17:33:44.968Z,3.20
2019-01-12T17:36:15.832Z,3.20
2019-01-12T17:38:47.327Z,3.20
2019-01-12T17:41:19.792Z,3.10
2019-01-12T17:43:56.358Z,3.10
2019-01-12T17:46:30.040Z,3.00
2019-01-12T17:49:00.004Z,2.90
2019-01-12T17:51:35.901Z,2.90
2019-01-12T17:54:08.218Z,2.90
2019-01-12T17:56:41.317Z,2.90
2019-01-12T17:59:28.170Z,2.80
2019-01-12T18:02:08.940Z,2.90
2019-01-12T18:04:38.783Z,2.90
2019-01-12T18:07:11.331Z,2.80
2019-01-12T18:09:41.036Z,2.70
2019-01-12T18:12:11.569Z,2.60
2019-01-12T18:14:43.939Z,2.50
2019-01-12T18:17:14.641Z,2.50
2019-01-12T18:19:46.257Z,2.50
2019-01-12T18:22:21.365Z,2.40
2019-01-12T18:24:54.173Z,2.40
2019-01-12T18:27:37.847Z,2.40
2019-01-12T18:30:15.028Z,2.40
2019-01-12T18:32:48.907Z,2.40
2019-01-12T18:35:18.610Z,2.40
2019-01-12T18:37:49.913Z,2.40
2019-01-12T18:40:19.609Z,2.40
2019-01-12T18:42:50.782Z,2.40
2019-01-12T18:45:20.497Z,2.40
2019-01-12T18:47:50.010Z,2.40
2019-01-12T18:50:23.163Z,2.40
2019-01-12T18:52:59.084Z,2.30
2019-01-12T18:55:32.327Z,2.40
2019-01-12T18:58:05.847Z,2.40
2019-01-12T19:00:40.567Z,2.40
2019-01-12T19:03:11.998Z,2.50
2019-01-12T19:05:43.893Z,2.40
2019-01-12T19:08:17.699Z,2.50
2019-01-12T19:10:49.303Z,2.50
2019-01-12T19:13:20.533Z,2.50
2019-01-12T19:15:53.791Z,2.50
2019-01-12T19:18:26.070Z,2.50
2019-01-12T19:20:56.799Z,2.50
2019-01-12T19:23:27.157Z,2.60
2019-01-12T19:26:00.695Z,2.50
2019-01-12T19:28:33.548Z,2.50
2019-01-12T19:31:04.591Z,2.50
2019-01-12T19:33:36.471Z,2.60
2019-01-12T19:36:08.048Z,2.60
2019-01-12T19:38:39.495Z,2.60
2019-01-12T19:41:12.200Z,2.60
2019-01-12T19:43:47.340Z,2.60
2019-01-12T19:46:17.432Z,2.70
2019-01-12T19:48:47.570Z,2.70
2019-01-12T19:51:21.056Z,2.60
2019-01-12T19:53:56.379Z,2.70
2019-01-12T19:56:26.401Z,2.70
2019-01-12T19:58:57.062Z,2.70
2019-01-12T20:01:28.474Z,2.70
2019-01-12T20:04:01.817Z,2.70
2019-01-12T20:06:32.680Z,2.70
2019-01-12T20:09:08.446Z,2.70
2019-01-12T20:14:17.478Z,2.70
2019-01-12T20:16:47.151Z,2.80
2019-01-12T20:19:18.839Z,2.70
2019-01-12T20:21:53.067Z,2.70
2019-01-12T20:24:22.608Z,2.80
2019-01-12T20:26:53.522Z,2.80
2019-01-12T20:29:23.355Z,2.80
2019-01-12T20:32:28.990Z,2.80
2019-01-12T20:35:45.699Z,2.70
2019-01-12T20:39:07.601Z,2.80
2019-01-12T20:42:23.921Z,2.80
2019-01-12T20:45:43.877Z,2.80
2019-01-12T20:49:00.160Z,2.80
2019-01-12T20:52:05.419Z,2.80
2019-01-12T20:55:08.214Z,2.90
2019-01-12T20:58:04.311Z,2.90
2019-01-12T21:01:34.066Z,2.90
2019-01-12T21:04:56.100Z,2.90
2019-01-12T21:08:09.165Z,3.00
2019-01-12T21:11:25.323Z,3.00
2019-01-12T21:14:41.278Z,3.00
2019-01-12T21:17:14.531Z,3.10
2019-01-12T21:19:48.439Z,3.10
2019-01-12T21:22:19.326Z,3.10
2019-01-12T21:24:50.862Z,3.20
2019-01-12T21:27:22.424Z,3.20
2019-01-12T21:29:53.826Z,3.30
2019-01-12T21:32:25.383Z,3.30
2019-01-12T21:34:58.427Z,3.30
2019-01-12T21:37:28.856Z,3.40
2019-01-12T21:40:00.362Z,3.40
2019-01-12T21:42:31.571Z,3.50
2019-01-12T21:45:03.302Z,3.40
2019-01-12T21:47:34.807Z,3.50
2019-01-12T21:50:06.698Z,3.50
2019-01-12T21:52:39.276Z,3.60
2019-01-12T21:55:12.901Z,3.60
2019-01-12T21:57:45.234Z,3.70
2019-01-12T22:00:18.246Z,3.70
2019-01-12T22:02:52.588Z,3.70
2019-01-12T22:05:24.438Z,3.70
2019-01-12T22:07:55.613Z,3.70
2019-01-12T22:10:27.210Z,3.70
2019-01-12T22:12:58.229Z,3.70
2019-01-12T22:15:30.127Z,3.70
2019-01-12T22:18:02.444Z,3.70
2019-01-12T22:20:33.808Z,3.70
2019-01-12T22:23:05.968Z,3.70
2019-01-12T22:25:40.739Z,3.70
2019-01-12T22:28:12.309Z,3.70
2019-01-12T22:30:44.029Z,3.60
2019-01-12T22:33:15.496Z,3.60
2019-01-12T22:35:51.301Z,3.60
2019-01-12T22:38:22.028Z,3.60
2019-01-12T22:41:16.560Z,3.60
2019-01-12T22:43:49.475Z,3.60
2019-01-12T22:46:20.024Z,3.60
2019-01-12T22:48:51.360Z,3.70
2019-01-12T22:51:23.103Z,3.80
2019-01-12T22:53:54.983Z,3.80
2019-01-12T22:56:26.259Z,3.90
2019-01-12T22:58:59.723Z,3.80
2019-01-12T23:01:52.466Z,3.80
2019-01-12T23:04:25.825Z,3.90
2019-01-12T23:06:57.166Z,3.90
2019-01-12T23:09:28.573Z,3.90
2019-01-12T23:11:59.846Z,4.00
2019-01-12T23:14:33.028Z,4.00
2019-01-12T23:17:04.977Z,4.00
2019-01-12T23:19:36.191Z,4.00
2019-01-12T23:22:07.193Z,4.00
2019-01-12T23:24:38.852Z,4.00
2019-01-12T23:27:11.035Z,4.00
2019-01-12T23:29:42.358Z,4.10
2019-01-12T23:32:13.431Z,4.10
2019-01-12T23:34:44.645Z,4.10
2019-01-12T23:37:17.437Z,4.10
2019-01-12T23:39:52.441Z,4.10
2019-01-12T23:42:30.676Z,4.20
2019-01-12T23:45:03.540Z,4.20
2019-01-12T23:47:37.890Z,4.20
2019-01-12T23:50:16.767Z,4.20
2019-01-12T23:52:50.543Z,4.20
2019-01-12T23:55:32.444Z,4.30
2019-01-12T23:58:06.741Z,4.30
